createdAt,value
2018-12-13T00:00:33.196Z,3.20
2018-12-13T00:03:03.232Z,3.20
2018-12-13T00:05:33.320Z,3.20
2018-12-13T00:08:01.328Z,3.20
2018-12-13T00:10:29.335Z,3.20
2018-12-13T00:12:59.371Z,3.20
2018-12-13T00:15:31.137Z,3.20
2018-12-13T00:17:59.283Z,3.20
2018-12-13T00:20:27.372Z,3.20
2018-12-13T00:22:55.338Z,3.30
2018-12-13T00:25:23.348Z,3.30
2018-12-13T00:27:51.927Z,3.30
2018-12-13T00:30:19.880Z,3.30
2018-12-13T00:32:47.872Z,3.30
2018-12-13T00:35:16.033Z,3.30
2018-12-13T00:37:44.028Z,3.20
2018-12-13T00:40:12.018Z,3.30
2018-12-13T00:42:39.994Z,3.20
2018-12-13T00:45:07.948Z,3.20
2018-12-13T00:47:35.934Z,3.20
2018-12-13T00:50:04.051Z,3.30
2018-12-13T00:52:32.060Z,3.20
2018-12-13T00:55:00.042Z,3.20
2018-12-13T00:57:28.037Z,3.20
2018-12-13T00:59:56.847Z,3.20
2018-12-13T01:02:24.860Z,3.20
2018-12-13T01:04:52.828Z,3.10
2018-12-13T01:07:20.810Z,3.20
2018-12-13T01:09:49.568Z,3.20
2018-12-13T01:12:18.407Z,3.20
2018-12-13T01:14:46.366Z,3.20
2018-12-13T01:17:15.834Z,3.20
2018-12-13T01:19:43.780Z,3.20
2018-12-13T01:22:11.876Z,3.20
2018-12-13T01:24:40.235Z,3.20
2018-12-13T01:27:08.285Z,3.20
2018-12-13T01:29:36.973Z,3.20
2018-12-13T01:32:04.959Z,3.20
2018-12-13T01:34:32.935Z,3.20
2018-12-13T01:37:00.902Z,3.20
2018-12-13T01:39:28.884Z,3.20
2018-12-13T01:41:57.003Z,3.20
2018-12-13T01:44:24.966Z,3.20
2018-12-13T01:46:53.024Z,3.20
2018-12-13T01:49:25.082Z,3.10
2018-12-13T01:51:53.355Z,3.20
2018-12-13T01:54:21.310Z,3.10
2018-12-13T01:56:49.340Z,3.10
2018-12-13T01:59:17.461Z,3.10
2018-12-13T02:01:45.428Z,3.10
2018-12-13T02:04:13.397Z,3.10
2018-12-13T02:06:41.936Z,3.10
2018-12-13T02:09:10.419Z,3.10
2018-12-13T02:11:40.944Z,3.10
2018-12-13T02:14:08.948Z,3.20
2018-12-13T02:16:36.927Z,3.10
2018-12-13T02:19:04.868Z,3.10
2018-12-13T02:21:32.828Z,3.20
2018-12-13T02:24:00.922Z,3.10
2018-12-13T02:26:29.779Z,3.10
2018-12-13T02:28:58.453Z,3.10
2018-12-13T02:31:26.396Z,3.10
2018-12-13T02:33:54.343Z,3.10
2018-12-13T02:36:22.309Z,3.10
2018-12-13T02:38:50.929Z,3.10
2018-12-13T02:41:19.647Z,3.10
2018-12-13T02:43:47.593Z,3.10
2018-12-13T02:46:15.539Z,3.10
2018-12-13T02:48:44.271Z,3.10
2018-12-13T02:51:12.232Z,3.10
2018-12-13T02:53:40.168Z,3.10
2018-12-13T02:56:08.102Z,3.10
2018-12-13T02:58:37.224Z,3.10
2018-12-13T03:01:05.397Z,3.10
2018-12-13T03:03:33.341Z,3.10
2018-12-13T03:06:01.296Z,3.10
2018-12-13T03:08:29.239Z,3.00
2018-12-13T03:10:59.752Z,3.10
2018-12-13T03:13:28.232Z,3.00
2018-12-13T03:15:56.195Z,3.00
2018-12-13T03:18:27.051Z,3.00
2018-12-13T03:20:55.042Z,3.10
2018-12-13T03:23:23.025Z,3.10
2018-12-13T03:25:50.969Z,3.00
2018-12-13T03:28:18.937Z,3.00
2018-12-13T03:30:47.195Z,3.00
2018-12-13T03:33:15.326Z,3.00
2018-12-13T03:35:43.844Z,3.00
2018-12-13T03:38:11.776Z,3.00
2018-12-13T03:40:39.721Z,3.00
2018-12-13T03:43:07.740Z,3.00
2018-12-13T03:45:35.690Z,3.00
2018-12-13T03:48:03.741Z,2.90
2018-12-13T03:50:32.456Z,2.90
2018-12-13T03:53:00.428Z,2.90
2018-12-13T03:55:28.436Z,2.90
2018-12-13T03:57:56.397Z,2.90
2018-12-13T04:00:24.336Z,2.90
2018-12-13T04:02:52.349Z,2.90
2018-12-13T04:05:20.392Z,2.90
2018-12-13T04:07:48.351Z,2.90
2018-12-13T04:10:16.304Z,2.90
2018-12-13T04:12:44.280Z,2.90
2018-12-13T04:15:12.374Z,2.80
2018-12-13T04:17:40.319Z,2.80
2018-12-13T04:20:10.320Z,2.80
2018-12-13T04:22:38.348Z,2.80
2018-12-13T04:25:06.311Z,2.80
2018-12-13T04:27:34.285Z,2.80
2018-12-13T04:30:02.250Z,2.80
2018-12-13T04:32:32.021Z,2.80
2018-12-13T04:34:59.974Z,2.70
2018-12-13T04:37:35.063Z,2.70
2018-12-13T04:39:57.915Z,2.70
2018-12-13T04:42:25.876Z,2.70
2018-12-13T04:44:53.819Z,2.70
2018-12-13T04:47:21.756Z,2.70
2018-12-13T04:49:49.715Z,2.70
2018-12-13T04:52:17.652Z,2.70
2018-12-13T04:54:45.599Z,2.70
2018-12-13T04:57:14.806Z,2.70
2018-12-13T04:59:42.732Z,2.60
2018-12-13T05:02:11.571Z,2.60
2018-12-13T05:04:39.552Z,2.60
2018-12-13T05:07:08.083Z,2.60
2018-12-13T05:09:36.783Z,2.60
2018-12-13T05:12:04.760Z,2.60
2018-12-13T05:14:33.333Z,2.60
2018-12-13T05:17:01.278Z,2.60
2018-12-13T05:19:29.260Z,2.60
2018-12-13T05:22:14.116Z,2.60
2018-12-13T05:24:42.099Z,2.50
2018-12-13T05:27:10.032Z,2.50
2018-12-13T05:29:37.964Z,2.60
2018-12-13T05:32:06.352Z,2.50
2018-12-13T05:34:34.285Z,2.50
2018-12-13T05:37:02.256Z,2.50
2018-12-13T05:39:30.226Z,2.50
2018-12-13T05:41:58.249Z,2.50
2018-12-13T05:44:26.196Z,2.50
2018-12-13T05:46:54.150Z,2.50
2018-12-13T05:49:22.940Z,2.50
2018-12-13T05:51:51.409Z,2.50
2018-12-13T05:54:19.368Z,2.50
2018-12-13T05:56:47.309Z,2.50
2018-12-13T05:59:15.257Z,2.40
2018-12-13T06:01:43.647Z,2.40
2018-12-13T06:04:11.589Z,2.40
2018-12-13T06:06:39.513Z,2.40
2018-12-13T06:09:07.507Z,2.40
2018-12-13T06:11:43.940Z,2.40
2018-12-13T06:14:21.955Z,2.50
2018-12-13T06:17:01.915Z,2.40
2018-12-13T06:19:37.878Z,2.50
2018-12-13T06:22:14.738Z,2.50
2018-12-13T06:24:52.830Z,2.40
2018-12-13T06:27:32.036Z,2.40
2018-12-13T06:30:10.571Z,2.40
2018-12-13T06:32:39.899Z,2.40
2018-12-13T06:35:07.885Z,2.40
2018-12-13T06:37:36.395Z,2.40
2018-12-13T06:40:05.435Z,2.40
2018-12-13T06:42:34.181Z,2.40
2018-12-13T06:45:04.552Z,2.40
2018-12-13T06:47:33.335Z,2.30
2018-12-13T06:50:01.836Z,2.30
2018-12-13T06:52:30.335Z,2.30
2018-12-13T06:54:59.008Z,2.30
2018-12-13T06:57:27.467Z,2.30
2018-12-13T06:59:55.975Z,2.30
2018-12-13T07:02:24.438Z,2.30
2018-12-13T07:05:00.711Z,2.30
2018-12-13T07:08:41.075Z,2.30
2018-12-13T07:11:19.061Z,2.20
2018-12-13T07:13:56.612Z,2.20
2018-12-13T07:16:34.341Z,2.20
2018-12-13T07:19:14.808Z,2.20
2018-12-13T07:21:54.117Z,2.20
2018-12-13T07:24:34.003Z,2.20
2018-12-13T07:27:03.373Z,2.20
2018-12-13T07:29:32.616Z,2.20
2018-12-13T07:32:01.097Z,2.20
2018-12-13T07:34:30.027Z,2.20
2018-12-13T07:36:58.035Z,2.20
2018-12-13T07:39:26.006Z,2.20
2018-12-13T07:41:54.011Z,2.20
2018-12-13T07:44:22.128Z,2.20
2018-12-13T07:46:50.143Z,2.20
2018-12-13T07:49:18.143Z,2.20
2018-12-13T07:51:46.148Z,2.20
2018-12-13T07:54:14.114Z,2.20
2018-12-13T07:56:42.109Z,2.20
2018-12-13T07:59:10.104Z,2.20
2018-12-13T08:01:38.529Z,2.20
2018-12-13T08:04:07.696Z,2.20
2018-12-13T08:06:35.672Z,2.20
2018-12-13T08:09:06.809Z,2.20
2018-12-13T08:11:36.032Z,2.20
2018-12-13T08:14:04.150Z,2.20
2018-12-13T08:16:32.122Z,2.20
2018-12-13T08:19:03.153Z,2.20
2018-12-13T08:21:33.334Z,2.30
2018-12-13T08:24:01.321Z,2.30
2018-12-13T08:26:29.336Z,2.30
2018-12-13T08:28:57.325Z,2.30
2018-12-13T08:31:25.301Z,2.30
2018-12-13T08:33:53.323Z,2.30
2018-12-13T08:36:22.016Z,2.30
2018-12-13T08:38:49.964Z,2.30
2018-12-13T08:41:17.981Z,2.40
2018-12-13T08:43:45.957Z,2.40
2018-12-13T08:46:14.026Z,2.40
2018-12-13T08:48:42.484Z,2.40
2018-12-13T08:51:10.524Z,2.40
2018-12-13T08:53:38.490Z,2.40
2018-12-13T08:56:07.199Z,2.40
2018-12-13T08:58:35.161Z,2.50
2018-12-13T09:01:03.150Z,2.50
2018-12-13T09:03:31.152Z,2.50
2018-12-13T09:05:59.126Z,2.50
2018-12-13T09:08:33.437Z,2.60
2018-12-13T09:10:57.133Z,2.60
2018-12-13T09:13:25.113Z,2.60
2018-12-13T09:15:53.096Z,2.70
2018-12-13T09:18:22.358Z,2.70
2018-12-13T09:20:50.470Z,2.70
2018-12-13T09:23:18.502Z,2.80
2018-12-13T09:25:46.473Z,2.80
2018-12-13T09:28:14.480Z,2.80
2018-12-13T09:30:42.478Z,2.90
2018-12-13T09:33:10.467Z,2.90
2018-12-13T09:35:38.463Z,2.90
2018-12-13T09:38:06.956Z,3.00
2018-12-13T09:40:34.974Z,3.00
2018-12-13T09:43:02.949Z,3.00
2018-12-13T09:45:30.939Z,3.10
2018-12-13T09:47:58.940Z,3.10
2018-12-13T09:50:26.908Z,3.10
2018-12-13T09:52:54.868Z,3.20
2018-12-13T09:55:22.908Z,3.20
2018-12-13T09:57:50.892Z,3.20
2018-12-13T10:00:18.881Z,3.30
2018-12-13T10:02:46.858Z,3.30
2018-12-13T10:05:19.273Z,3.30
2018-12-13T10:07:48.138Z,3.40
2018-12-13T10:10:16.117Z,3.40
2018-12-13T10:12:44.093Z,3.50
2018-12-13T10:15:12.136Z,3.50
2018-12-13T10:17:40.174Z,3.60
2018-12-13T10:20:08.256Z,3.60
2018-12-13T10:22:36.266Z,3.70
2018-12-13T10:25:05.008Z,3.70
2018-12-13T10:27:33.104Z,3.80
2018-12-13T10:30:01.177Z,3.80
2018-12-13T10:32:29.139Z,3.90
2018-12-13T10:34:57.131Z,3.90
2018-12-13T10:37:25.267Z,3.90
2018-12-13T10:39:53.216Z,4.00
2018-12-13T10:42:21.164Z,4.00
2018-12-13T10:44:50.437Z,4.00
2018-12-13T10:47:18.373Z,4.10
2018-12-13T10:49:46.310Z,4.10
2018-12-13T10:52:14.271Z,4.10
2018-12-13T10:54:42.203Z,4.10
2018-12-13T10:57:10.140Z,4.10
2018-12-13T10:59:38.188Z,4.10
2018-12-13T11:02:10.636Z,4.20
2018-12-13T11:04:38.581Z,4.20
2018-12-13T11:07:07.241Z,4.20
2018-12-13T11:09:35.176Z,4.20
2018-12-13T11:12:03.157Z,4.20
2018-12-13T11:14:31.109Z,4.30
2018-12-13T11:16:59.073Z,4.30
2018-12-13T11:19:27.046Z,4.40
2018-12-13T11:21:54.983Z,4.40
2018-12-13T11:24:23.523Z,4.40
2018-12-13T11:26:51.553Z,4.40
2018-12-13T11:29:33.807Z,4.50
2018-12-13T11:32:01.882Z,4.50
2018-12-13T11:34:29.841Z,4.50
2018-12-13T11:36:57.774Z,4.50
2018-12-13T11:39:25.732Z,4.60
2018-12-13T11:41:54.372Z,4.60
2018-12-13T11:44:26.245Z,4.70
2018-12-13T11:46:54.300Z,4.70
2018-12-13T11:49:22.426Z,4.70
2018-12-13T11:51:50.424Z,4.80
2018-12-13T11:54:33.392Z,4.80
2018-12-13T11:57:01.348Z,4.80
2018-12-13T11:59:29.317Z,4.90
2018-12-13T12:01:57.791Z,4.90
2018-12-13T12:04:25.832Z,4.80
2018-12-13T12:06:53.802Z,4.90
2018-12-13T12:09:21.775Z,5.00
2018-12-13T12:11:50.100Z,5.00
2018-12-13T12:14:18.083Z,5.00
2018-12-13T12:16:47.056Z,5.00
2018-12-13T12:19:15.082Z,5.00
2018-12-13T12:21:43.058Z,5.00
2018-12-13T12:24:11.065Z,5.00
2018-12-13T12:26:39.997Z,5.10
2018-12-13T12:29:08.018Z,5.10
2018-12-13T12:31:35.960Z,5.20
2018-12-13T12:34:03.931Z,5.20
2018-12-13T12:36:32.124Z,5.20
2018-12-13T12:39:00.391Z,5.20
2018-12-13T12:41:28.369Z,5.30
2018-12-13T12:43:56.307Z,5.30
2018-12-13T12:46:24.287Z,5.30
2018-12-13T12:48:52.257Z,5.30
2018-12-13T12:51:20.212Z,5.40
2018-12-13T12:53:48.154Z,5.40
2018-12-13T12:56:16.133Z,5.40
2018-12-13T12:58:44.076Z,5.40
2018-12-13T13:01:12.094Z,5.40
2018-12-13T13:03:40.070Z,5.40
2018-12-13T13:06:08.036Z,5.40
2018-12-13T13:08:36.053Z,5.30
2018-12-13T13:11:04.768Z,5.30
2018-12-13T13:13:32.725Z,5.40
2018-12-13T13:16:00.694Z,5.40
2018-12-13T13:18:28.681Z,5.40
2018-12-13T13:20:56.725Z,5.40
2018-12-13T13:23:24.935Z,5.40
2018-12-13T13:25:52.930Z,5.40
2018-12-13T13:28:20.928Z,5.40
2018-12-13T13:30:48.929Z,5.40
2018-12-13T13:33:16.975Z,5.40
2018-12-13T13:35:44.955Z,5.30
2018-12-13T13:38:12.911Z,5.30
2018-12-13T13:40:40.935Z,5.30
2018-12-13T13:43:09.094Z,5.30
2018-12-13T13:45:37.065Z,5.40
2018-12-13T13:48:05.022Z,5.30
2018-12-13T13:50:32.975Z,5.30
2018-12-13T13:54:03.958Z,5.40
2018-12-13T13:56:31.901Z,5.40
2018-12-13T13:58:59.845Z,5.30
2018-12-13T14:01:27.817Z,5.30
2018-12-13T14:03:55.774Z,5.30
2018-12-13T14:06:23.707Z,5.30
2018-12-13T14:08:51.669Z,5.30
2018-12-13T14:11:19.668Z,5.30
2018-12-13T14:13:47.892Z,5.30
2018-12-13T14:16:15.879Z,5.30
2018-12-13T14:18:43.823Z,5.30
2018-12-13T14:21:11.822Z,5.30
2018-12-13T14:23:39.821Z,5.30
2018-12-13T14:26:07.750Z,5.30
2018-12-13T14:28:35.692Z,5.30
2018-12-13T14:31:03.932Z,5.30
2018-12-13T14:33:31.902Z,5.30
2018-12-13T14:35:59.902Z,5.30
2018-12-13T14:38:29.034Z,5.20
2018-12-13T14:40:59.049Z,5.20
2018-12-13T14:43:29.757Z,5.20
2018-12-13T14:45:58.502Z,5.20
2018-12-13T14:48:27.188Z,5.20
2018-12-13T14:50:55.888Z,5.10
2018-12-13T14:53:24.730Z,5.10
2018-12-13T14:55:52.735Z,5.10
2018-12-13T14:58:21.513Z,5.00
2018-12-13T15:00:50.165Z,5.00
2018-12-13T15:03:18.109Z,5.00
2018-12-13T15:05:46.959Z,5.00
2018-12-13T15:08:15.580Z,5.00
2018-12-13T15:10:43.659Z,4.90
2018-12-13T15:13:11.642Z,4.90
2018-12-13T15:15:39.633Z,4.90
2018-12-13T15:18:07.576Z,4.90
2018-12-13T15:20:36.460Z,4.80
2018-12-13T15:23:05.054Z,4.80
2018-12-13T15:25:33.041Z,4.80
2018-12-13T15:28:01.114Z,4.80
2018-12-13T15:30:29.149Z,4.70
2018-12-13T15:32:57.738Z,4.70
2018-12-13T15:35:27.296Z,4.70
2018-12-13T15:37:56.137Z,4.70
2018-12-13T15:40:24.284Z,4.70
2018-12-13T15:42:52.994Z,4.60
2018-12-13T15:45:22.117Z,4.60
2018-12-13T15:47:50.923Z,4.50
2018-12-13T15:50:19.829Z,4.50
2018-12-13T15:52:47.954Z,4.50
2018-12-13T15:55:16.142Z,4.50
2018-12-13T15:57:44.965Z,4.50
2018-12-13T16:00:13.758Z,4.50
2018-12-13T16:02:44.688Z,4.50
2018-12-13T16:05:13.613Z,4.40
2018-12-13T16:07:42.520Z,4.40
2018-12-13T16:10:11.574Z,4.40
2018-12-13T16:12:40.479Z,4.40
2018-12-13T16:15:09.615Z,4.30
2018-12-13T16:17:37.784Z,4.30
2018-12-13T16:20:07.085Z,4.30
2018-12-13T16:22:35.962Z,4.30
2018-12-13T16:25:04.700Z,4.30
2018-12-13T16:27:33.724Z,4.30
2018-12-13T16:30:02.932Z,4.30
2018-12-13T16:32:32.514Z,4.20
2018-12-13T16:35:01.320Z,4.20
2018-12-13T16:37:29.437Z,4.20
2018-12-13T16:39:58.249Z,4.20
2018-12-13T16:42:26.303Z,4.20
2018-12-13T16:44:56.555Z,4.20
2018-12-13T16:47:24.638Z,4.20
2018-12-13T16:49:52.869Z,4.20
2018-12-13T16:52:21.384Z,4.20
2018-12-13T16:54:49.988Z,4.10
2018-12-13T16:57:18.078Z,4.10
2018-12-13T17:00:49.976Z,4.10
2018-12-13T17:03:29.179Z,4.10
2018-12-13T17:05:57.242Z,4.10
2018-12-13T17:08:25.539Z,4.00
2018-12-13T17:10:53.596Z,4.00
2018-12-13T17:13:21.585Z,4.00
2018-12-13T17:15:50.214Z,4.00
2018-12-13T17:18:18.306Z,4.00
2018-12-13T17:20:46.373Z,4.00
2018-12-13T17:23:15.305Z,4.00
2018-12-13T17:25:43.796Z,4.00
2018-12-13T17:28:11.975Z,4.00
2018-12-13T17:30:40.260Z,3.90
2018-12-13T17:33:09.041Z,3.90
2018-12-13T17:35:37.294Z,3.90
2018-12-13T17:38:05.430Z,3.90
2018-12-13T17:40:33.571Z,3.90
2018-12-13T17:43:01.668Z,3.90
2018-12-13T17:45:32.717Z,3.90
2018-12-13T17:48:01.284Z,3.90
2018-12-13T17:50:30.550Z,3.90
2018-12-13T17:53:01.210Z,3.90
2018-12-13T17:55:34.023Z,3.90
2018-12-13T17:58:02.016Z,3.80
2018-12-13T18:00:33.703Z,3.80
2018-12-13T18:03:02.111Z,3.80
2018-12-13T18:05:30.958Z,3.80
2018-12-13T18:28:13.711Z,3.60
2018-12-13T18:30:42.608Z,3.60
2018-12-13T18:33:10.639Z,3.60
2018-12-13T18:35:38.908Z,3.60
2018-12-13T18:38:06.963Z,3.60
2018-12-13T18:40:35.726Z,3.60
2018-12-13T18:43:04.407Z,3.60
2018-12-13T18:45:36.725Z,3.50
2018-12-13T18:48:06.114Z,3.50
2018-12-13T18:50:34.799Z,3.50
2018-12-13T18:53:03.132Z,3.50
2018-12-13T18:55:31.228Z,3.50
2018-12-13T18:57:59.244Z,3.50
2018-12-13T19:00:27.414Z,3.50
2018-12-13T19:03:11.109Z,3.50
2018-12-13T19:05:55.677Z,3.50
2018-12-13T19:08:40.524Z,3.50
2018-12-13T19:11:25.134Z,3.50
2018-12-13T19:14:10.409Z,3.50
2018-12-13T19:16:52.155Z,3.50
2018-12-13T19:19:36.735Z,3.50
2018-12-13T19:22:24.416Z,3.50
2018-12-13T19:25:10.839Z,3.40
2018-12-13T19:27:59.196Z,3.50
2018-12-13T19:30:45.195Z,3.50
2018-12-13T19:33:30.378Z,3.50
2018-12-13T19:36:15.419Z,3.50
2018-12-13T19:38:59.200Z,3.40
2018-12-13T19:41:28.953Z,3.40
2018-12-13T19:43:57.287Z,3.40
2018-12-13T19:46:25.556Z,3.40
2018-12-13T19:48:54.192Z,3.40
2018-12-13T19:51:22.166Z,3.40
2018-12-13T19:53:50.133Z,3.30
2018-12-13T19:56:19.553Z,3.30
2018-12-13T19:58:48.560Z,3.30
2018-12-13T20:01:16.643Z,3.30
2018-12-13T20:03:44.778Z,3.30
2018-12-13T20:06:13.040Z,3.30
2018-12-13T20:08:41.107Z,3.30
2018-12-13T20:11:20.012Z,3.30
2018-12-13T20:13:58.440Z,3.20
2018-12-13T20:16:38.939Z,3.20
2018-12-13T20:19:19.947Z,3.20
2018-12-13T20:22:01.219Z,3.10
2018-12-13T20:24:42.557Z,3.10
2018-12-13T20:27:23.160Z,3.00
2018-12-13T20:30:01.931Z,3.00
2018-12-13T20:32:43.137Z,3.00
2018-12-13T20:35:13.367Z,2.90
2018-12-13T20:37:41.752Z,2.90
2018-12-13T20:40:09.859Z,2.90
2018-12-13T20:42:37.882Z,2.90
2018-12-13T20:45:06.936Z,2.90
2018-12-13T20:47:34.959Z,2.90
2018-12-13T20:50:03.909Z,2.80
2018-12-13T20:52:44.983Z,2.80
2018-12-13T20:55:25.707Z,2.80
2018-12-13T20:58:06.099Z,2.70
2018-12-13T21:00:42.624Z,2.70
2018-12-13T21:03:22.790Z,2.70
2018-12-13T21:06:08.332Z,2.60
2018-12-13T21:08:52.612Z,2.60
2018-12-13T21:11:32.657Z,2.60
2018-12-13T21:14:10.336Z,2.50
2018-12-13T21:16:44.320Z,2.40
2018-12-13T21:19:25.485Z,2.40
2018-12-13T21:21:57.249Z,2.40
2018-12-13T21:24:25.330Z,2.40
2018-12-13T21:26:53.357Z,2.30
2018-12-13T21:29:21.354Z,2.30
2018-12-13T21:32:00.627Z,2.30
2018-12-13T21:34:42.179Z,2.20
2018-12-13T21:37:21.931Z,2.20
2018-12-13T21:39:58.899Z,2.20
2018-12-13T21:42:38.751Z,2.10
2018-12-13T21:45:22.315Z,2.00
2018-12-13T21:48:03.457Z,2.00
2018-12-13T21:50:43.907Z,2.00
2018-12-13T21:53:22.975Z,1.90
2018-12-13T21:56:01.689Z,1.90
2018-12-13T21:58:30.383Z,1.90
2018-12-13T22:00:58.949Z,1.80
2018-12-13T22:03:27.573Z,1.80
2018-12-13T22:05:56.315Z,1.80
2018-12-13T22:08:24.825Z,1.70
2018-12-13T22:10:55.072Z,1.70
2018-12-13T22:13:23.704Z,1.60
2018-12-13T22:15:52.071Z,1.60
2018-12-13T22:18:20.129Z,1.60
2018-12-13T22:20:48.140Z,1.60
2018-12-13T22:23:16.103Z,1.50
2018-12-13T22:25:44.712Z,1.50
2018-12-13T22:28:12.761Z,1.50
2018-12-13T22:30:40.749Z,1.50
2018-12-13T22:33:08.725Z,1.50
2018-12-13T22:35:36.705Z,1.40
2018-12-13T22:38:04.685Z,1.40
2018-12-13T22:40:32.756Z,1.40
2018-12-13T22:43:00.760Z,1.40
2018-12-13T22:45:28.712Z,1.40
2018-12-13T22:47:56.740Z,1.40
2018-12-13T22:50:24.728Z,1.40
2018-12-13T22:52:52.698Z,1.40
2018-12-13T22:55:20.677Z,1.40
2018-12-13T22:57:49.488Z,1.40
2018-12-13T23:00:17.607Z,1.40
2018-12-13T23:05:45.269Z,1.40
2018-12-13T23:08:14.139Z,1.40
2018-12-13T23:10:42.164Z,1.40
2018-12-13T23:13:10.198Z,1.40
2018-12-13T23:15:38.181Z,1.40
2018-12-13T23:18:06.247Z,1.40
2018-12-13T23:20:34.333Z,1.30
2018-12-13T23:23:02.312Z,1.30
2018-12-13T23:25:30.291Z,1.30
2018-12-13T23:27:58.301Z,1.30
2018-12-13T23:30:26.276Z,1.20
2018-12-13T23:32:54.251Z,1.20
2018-12-13T23:35:22.245Z,1.20
2018-12-13T23:37:50.208Z,1.20
2018-12-13T23:40:18.168Z,1.20
2018-12-13T23:42:46.205Z,1.10
2018-12-13T23:45:14.191Z,1.10
2018-12-13T23:47:42.133Z,1.10
2018-12-13T23:50:10.185Z,1.10
2018-12-13T23:52:38.192Z,1.00
2018-12-13T23:55:06.865Z,1.00
2018-12-13T23:57:34.871Z,1.00
